createdAt,value
2022-12-28T00:04:11.147Z,21.32
2022-12-28T00:09:13.995Z,21.29
2022-12-28T00:14:18.202Z,21.30
2022-12-28T00:19:22.101Z,21.36
2022-12-28T00:24:25.871Z,21.36
2022-12-28T00:29:29.986Z,21.35
2022-12-28T00:34:32.894Z,21.38
2022-12-28T00:39:35.640Z,21.42
2022-12-28T00:44:39.833Z,21.43
2022-12-28T00:49:42.607Z,21.44
2022-12-28T00:54:45.336Z,21.42
2022-12-28T00:59:49.540Z,21.41
2022-12-28T01:04:52.348Z,21.40
2022-12-28T01:09:55.106Z,21.41
2022-12-28T01:14:59.236Z,21.46
2022-12-28T01:20:02.000Z,21.46
2022-12-28T01:25:04.976Z,21.43
2022-12-28T01:30:11.415Z,21.46
2022-12-28T01:35:14.308Z,21.47
2022-12-28T01:40:17.185Z,21.44
2022-12-28T01:45:22.788Z,21.50
2022-12-28T01:50:26.820Z,21.45
2022-12-28T01:55:30.795Z,21.51
2022-12-28T02:00:35.054Z,21.47
2022-12-28T02:05:40.202Z,21.50
2022-12-28T02:10:45.790Z,21.50
2022-12-28T02:15:52.460Z,21.54
2022-12-28T02:21:16.703Z,21.51
2022-12-28T02:26:39.237Z,21.57
2022-12-28T02:31:47.875Z,21.52
2022-12-28T02:36:53.445Z,21.46
2022-12-28T02:41:56.234Z,21.51
2022-12-28T02:47:18.318Z,21.52
2022-12-28T02:52:23.217Z,21.52
2022-12-28T02:57:35.373Z,21.50
2022-12-28T03:02:52.138Z,21.52
2022-12-28T03:08:14.793Z,21.54
2022-12-28T03:13:36.943Z,21.55
2022-12-28T03:18:59.199Z,21.48
2022-12-28T03:24:20.918Z,21.55
2022-12-28T03:29:42.880Z,21.54
2022-12-28T03:34:47.249Z,21.52
2022-12-28T03:39:52.083Z,21.56
2022-12-28T03:44:58.489Z,21.53
2022-12-28T03:50:03.392Z,21.54
2022-12-28T03:55:06.786Z,21.55
2022-12-28T04:00:10.891Z,21.52
2022-12-28T04:05:21.308Z,21.57
2022-12-28T04:10:24.453Z,21.57
2022-12-28T04:15:28.276Z,21.55
2022-12-28T04:20:32.926Z,21.57
2022-12-28T04:25:36.874Z,21.52
2022-12-28T04:30:40.125Z,21.44
2022-12-28T04:35:44.844Z,21.45
2022-12-28T04:40:47.939Z,21.45
2022-12-28T04:45:56.713Z,21.42
2022-12-28T04:51:06.420Z,21.43
2022-12-28T04:56:09.904Z,21.34
2022-12-28T05:01:13.851Z,21.31
2022-12-28T05:06:18.890Z,21.24
2022-12-28T05:11:22.554Z,21.19
2022-12-28T05:16:26.426Z,21.16
2022-12-28T05:21:30.651Z,21.08
2022-12-28T05:26:34.724Z,21.07
2022-12-28T05:31:37.610Z,21.00
2022-12-28T05:36:41.759Z,20.94
2022-12-28T05:41:44.554Z,20.87
2022-12-28T05:46:47.368Z,20.79
2022-12-28T05:51:51.665Z,20.72
2022-12-28T05:56:54.434Z,20.67
2022-12-28T06:01:57.468Z,20.60
2022-12-28T06:07:01.779Z,20.55
2022-12-28T06:12:06.935Z,20.49
2022-12-28T06:17:09.846Z,20.44
2022-12-28T06:22:13.991Z,20.37
2022-12-28T06:27:16.927Z,20.33
2022-12-28T06:32:19.710Z,20.25
2022-12-28T06:37:23.780Z,20.21
2022-12-28T06:42:26.519Z,20.17
2022-12-28T06:47:29.371Z,20.12
2022-12-28T06:52:33.584Z,20.07
2022-12-28T06:57:36.351Z,20.03
2022-12-28T07:02:39.430Z,19.98
2022-12-28T07:07:46.286Z,19.93
2022-12-28T07:12:49.080Z,19.89
2022-12-28T07:17:51.883Z,19.85
2022-12-28T07:22:56.019Z,19.81
2022-12-28T07:27:58.894Z,19.78
2022-12-28T07:33:01.834Z,19.74
2022-12-28T07:38:05.924Z,19.69
2022-12-28T07:43:08.778Z,19.66
2022-12-28T07:48:11.589Z,19.62
2022-12-28T07:53:21.835Z,19.59
2022-12-28T07:58:24.929Z,19.57
2022-12-28T08:03:27.953Z,19.55
2022-12-28T08:08:32.180Z,19.54
2022-12-28T08:13:35.286Z,19.52
2022-12-28T08:18:38.114Z,19.50
2022-12-28T08:23:42.276Z,19.49
2022-12-28T08:28:45.749Z,19.47
2022-12-28T08:33:48.610Z,19.48
2022-12-28T08:38:52.719Z,19.45
2022-12-28T08:43:55.560Z,19.44
2022-12-28T08:48:58.974Z,19.45
2022-12-28T08:54:03.782Z,19.43
2022-12-28T08:59:06.543Z,19.41
2022-12-28T09:04:13.380Z,19.40
2022-12-28T09:09:19.155Z,19.39
2022-12-28T09:14:24.266Z,18.89
2022-12-28T09:19:27.317Z,18.89
2022-12-28T09:24:31.476Z,19.08
2022-12-28T09:29:34.286Z,18.70
2022-12-28T09:34:38.221Z,19.03
2022-12-28T09:39:42.634Z,19.07
2022-12-28T09:44:48.844Z,19.13
2022-12-28T09:50:00.233Z,19.19
2022-12-28T09:55:08.428Z,19.12
2022-12-28T10:00:17.314Z,19.22
2022-12-28T10:05:20.955Z,19.26
2022-12-28T10:10:25.150Z,19.30
2022-12-28T10:15:28.452Z,19.34
2022-12-28T10:20:31.313Z,19.38
2022-12-28T10:25:35.442Z,19.35
2022-12-28T10:30:45.867Z,19.31
2022-12-28T10:35:52.442Z,18.71
2022-12-28T10:41:00.363Z,18.23
2022-12-28T10:46:03.603Z,17.92
2022-12-28T10:51:13.309Z,17.69
2022-12-28T10:56:22.193Z,17.88
2022-12-28T11:01:27.085Z,18.19
2022-12-28T11:06:31.788Z,18.48
2022-12-28T11:11:35.961Z,18.76
2022-12-28T11:16:38.964Z,18.95
2022-12-28T11:21:42.159Z,19.07
2022-12-28T11:26:47.488Z,19.18
2022-12-28T11:31:52.093Z,18.11
2022-12-28T11:36:55.559Z,18.47
2022-12-28T11:47:32.952Z,18.91
2022-12-28T11:52:45.970Z,18.99
2022-12-28T11:57:50.217Z,19.05
2022-12-28T12:02:53.987Z,19.13
2022-12-28T12:07:57.177Z,19.18
2022-12-28T12:13:01.988Z,19.19
2022-12-28T12:18:05.758Z,19.19
2022-12-28T12:23:10.774Z,19.17
2022-12-28T12:28:20.969Z,19.17
2022-12-28T12:33:25.750Z,18.90
2022-12-28T12:38:36.152Z,18.93
2022-12-28T12:43:45.438Z,18.97
2022-12-28T12:49:01.106Z,18.99
2022-12-28T12:54:16.945Z,19.03
2022-12-28T12:59:37.996Z,19.05
2022-12-28T13:04:41.233Z,19.08
2022-12-28T13:09:44.022Z,19.12
2022-12-28T13:14:48.497Z,19.04
2022-12-28T13:19:51.349Z,19.21
2022-12-28T13:24:54.242Z,19.28
2022-12-28T13:29:58.577Z,19.28
2022-12-28T13:35:01.442Z,19.23
2022-12-28T13:40:11.245Z,19.24
2022-12-28T13:45:15.938Z,19.28
2022-12-28T13:50:19.902Z,19.29
2022-12-28T13:55:25.234Z,19.30
2022-12-28T14:00:29.367Z,19.26
2022-12-28T14:05:32.390Z,19.25
2022-12-28T14:10:35.268Z,19.27
2022-12-28T14:15:41.536Z,19.29
2022-12-28T14:20:48.448Z,19.27
2022-12-28T14:25:51.346Z,19.21
2022-12-28T14:30:55.670Z,19.26
2022-12-28T14:36:00.286Z,19.28
2022-12-28T14:41:03.472Z,19.24
2022-12-28T14:46:17.445Z,19.24
2022-12-28T14:51:33.270Z,19.29
2022-12-28T14:56:36.269Z,19.24
2022-12-28T15:01:42.826Z,19.23
2022-12-28T15:06:47.002Z,19.23
2022-12-28T15:11:49.803Z,19.20
2022-12-28T15:16:52.629Z,19.22
2022-12-28T15:21:56.917Z,19.26
2022-12-28T15:26:59.771Z,19.10
2022-12-28T15:32:02.526Z,19.19
2022-12-28T15:37:06.731Z,19.17
2022-12-28T15:42:09.590Z,19.21
2022-12-28T15:47:12.544Z,19.19
2022-12-28T15:52:16.737Z,19.20
2022-12-28T15:57:19.533Z,19.19
2022-12-28T16:02:22.491Z,19.19
2022-12-28T16:07:26.837Z,19.17
2022-12-28T16:12:29.733Z,19.18
2022-12-28T16:17:32.494Z,19.04
2022-12-28T16:22:36.559Z,19.15
2022-12-28T16:27:39.296Z,19.18
2022-12-28T16:32:42.125Z,19.16
2022-12-28T16:37:46.246Z,19.16
2022-12-28T16:42:49.042Z,19.18
2022-12-28T16:47:51.779Z,19.19
2022-12-28T16:53:00.959Z,19.31
2022-12-28T16:58:04.147Z,19.60
2022-12-28T17:03:06.972Z,19.83
2022-12-28T17:08:11.470Z,19.98
2022-12-28T17:13:16.063Z,20.12
2022-12-28T17:18:18.862Z,20.20
2022-12-28T17:23:23.023Z,20.23
2022-12-28T17:28:25.903Z,20.27
2022-12-28T17:33:31.575Z,20.32
2022-12-28T17:38:38.213Z,20.34
2022-12-28T17:43:41.027Z,20.37
2022-12-28T17:48:43.939Z,20.43
2022-12-28T17:53:49.011Z,20.48
2022-12-28T17:58:54.877Z,20.56
2022-12-28T18:03:57.774Z,20.60
2022-12-28T18:09:02.046Z,20.65
2022-12-28T18:14:04.858Z,20.72
2022-12-28T18:19:07.674Z,20.78
2022-12-28T18:24:12.618Z,20.79
2022-12-28T18:29:15.430Z,20.90
2022-12-28T18:34:18.269Z,20.95
2022-12-28T18:39:22.553Z,20.98
2022-12-28T18:44:25.767Z,21.04
2022-12-28T18:49:29.204Z,21.07
2022-12-28T18:54:33.374Z,21.08
2022-12-28T18:59:36.159Z,21.10
2022-12-28T19:04:39.068Z,21.14
2022-12-28T19:10:09.890Z,21.14
2022-12-28T19:15:15.087Z,21.14
2022-12-28T19:20:18.126Z,21.17
2022-12-28T19:25:22.227Z,21.21
2022-12-28T19:30:25.003Z,21.23
2022-12-28T19:35:27.823Z,21.25
2022-12-28T19:40:32.179Z,21.31
2022-12-28T19:45:34.962Z,21.30
2022-12-28T19:50:37.891Z,21.30
2022-12-28T19:55:42.070Z,21.33
2022-12-28T20:00:44.851Z,21.33
2022-12-28T20:05:47.631Z,21.36
2022-12-28T20:10:57.339Z,21.38
2022-12-28T20:16:00.294Z,21.40
2022-12-28T20:21:20.556Z,21.45
2022-12-28T20:26:26.967Z,21.45
2022-12-28T20:31:29.834Z,21.48
2022-12-28T20:36:34.635Z,21.47
2022-12-28T20:41:56.434Z,21.42
2022-12-28T20:46:59.338Z,21.47
2022-12-28T20:52:02.096Z,21.48
2022-12-28T20:57:06.336Z,21.49
2022-12-28T21:02:10.814Z,21.49
2022-12-28T21:07:13.665Z,21.54
2022-12-28T21:12:17.899Z,21.52
2022-12-28T21:17:20.711Z,21.53
2022-12-28T21:22:23.473Z,21.54
2022-12-28T21:27:27.638Z,21.54
2022-12-28T21:32:30.392Z,21.59
2022-12-28T21:37:36.211Z,21.56
2022-12-28T21:42:40.471Z,21.58
2022-12-28T21:47:43.227Z,21.57
2022-12-28T21:52:45.943Z,21.92
2022-12-28T21:57:51.644Z,21.96
2022-12-28T22:03:12.149Z,21.70
2022-12-28T22:08:32.770Z,21.65
2022-12-28T22:13:36.917Z,21.61
2022-12-28T22:24:02.504Z,21.67
2022-12-28T22:29:06.648Z,21.68
2022-12-28T22:34:09.369Z,21.73
2022-12-28T22:39:12.115Z,21.66
2022-12-28T22:44:16.258Z,21.72
2022-12-28T22:49:19.210Z,21.74
2022-12-28T22:54:22.030Z,21.79
2022-12-28T22:59:26.333Z,21.81
2022-12-28T23:04:29.076Z,21.86
2022-12-28T23:09:32.037Z,21.84
2022-12-28T23:14:53.495Z,21.89
2022-12-28T23:20:13.848Z,21.90
2022-12-28T23:25:35.223Z,21.90
2022-12-28T23:30:40.028Z,21.89
2022-12-28T23:35:42.821Z,21.93
2022-12-28T23:40:45.802Z,21.88
2022-12-28T23:45:50.164Z,21.84
2022-12-28T23:51:07.812Z,21.83
2022-12-28T23:56:10.601Z,21.85
